Terminal Aerodrome Forecast
Issued by NWS Wilmington, OH

Current Version | Previous Version | Graphics & Text | Print | Product List | Glossary On
Versions: 1 2 3 4 5 6 7 8 9 10 11 12 13 14 15 16 17 18 19 20 21 22
000
FTUS41 KILN 271125
TAFILN
TAF
KILN 271125Z 2712/2812 VRB03KT 1/4SM FG VV002
     FM271400 VRB03KT 6SM BR SCT025 BKN060
     FM271500 20005KT P6SM VCTS SCT025CB BKN090
     FM272200 17005KT P6SM -SHRA VCTS SCT025CB BKN080
     FM280600 17005KT 3SM -SHRA SCT025 OVC035
     FM281100 00000KT 2SM -SHRA OVC008=

USA.gov is the U.S. government's official web portal to all federal, state and local government web resources and services.